Time;durP1;ratioP1;P1;durP2;ratioP2;P2;SDS_P1;SDS_P2;PMS_P1;PMS_P2;Temp;Humidity;BMP_temperature;BMP_pressure;BME280_temperature;BME280_humidity;BME280_pressure;Samples;Min_cycle;Max_cycle;Signal;HPM_P1;HPM_P2
2023/09/16 00:01:47;;;;;;;;;;;;;;;24.50;51.25;95426.09;6209549;28;109257;-69
2023/09/16 00:04:51;;;;;;;;;;;;;;;24.54;51.02;95420.94;6209308;28;109078;-67
2023/09/16 00:07:54;;;;;;;;;;;;;;;24.55;50.97;95425.19;6210540;28;110321;-70
2023/09/16 00:10:57;;;;;;;;;;;;;;;24.61;50.72;95416.69;6198900;28;109950;-70
2023/09/16 00:14:02;;;;;;;;;;;;;;;24.64;50.96;95408.03;6207461;28;110048;-70
2023/09/16 00:17:05;;;;;;;;;;;;;;;24.61;51.26;95410.53;6222680;28;109110;-70
2023/09/16 00:20:14;;;;;;;;;;;;;;;24.57;51.22;95406.94;6222655;28;109461;-70
2023/09/16 00:23:17;;;;;;;;;;;;;;;24.62;50.54;95404.09;6199856;28;109300;-69
2023/09/16 00:26:20;;;;;;;;;;;;;;;24.53;50.79;95400.59;6202974;28;109213;-71
2023/09/16 00:29:24;;;;;;;;;;;;;;;24.41;50.88;95403.91;6205316;28;109202;-71
2023/09/16 00:32:28;;;;;;;;;;;;;;;24.28;51.59;95405.59;6176071;28;109802;-65
2023/09/16 00:35:31;;;;;;;;;;;;;;;24.27;51.40;95406.69;6198192;28;110721;-69
2023/09/16 00:38:33;;;;;;;;;;;;;;;24.08;51.85;95412.31;6209921;28;109152;-67
2023/09/16 00:41:36;;;;;;;;;;;;;;;24.31;50.74;95415.66;6187527;28;109993;-67
2023/09/16 00:44:40;;;;;;;;;;;;;;;24.47;50.37;95408.78;6180265;28;111645;-68
2023/09/16 00:47:43;;;;;;;;;;;;;;;24.60;50.43;95400.94;6210175;28;110198;-67
2023/09/16 00:50:47;;;;;;;;;;;;;;;24.63;49.85;95408.34;6206369;28;109295;-68
2023/09/16 00:53:51;;;;;;;;;;;;;;;24.69;49.72;95409.78;6214480;28;110400;-66
2023/09/16 00:56:54;;;;;;;;;;;;;;;24.71;49.49;95412.97;6202303;28;110675;-67
2023/09/16 00:59:58;;;;;;;;;;;;;;;24.75;49.44;95420.03;6206077;28;109120;-67
2023/09/16 01:03:04;;;;;;;;;;;;;;;24.77;49.45;95417.06;6212431;28;110382;-67
2023/09/16 01:06:08;;;;;;;;;;;;;;;24.77;49.70;95407.13;6207834;28;108979;-67
2023/09/16 01:09:11;;;;;;;;;;;;;;;24.79;49.31;95414.84;6207643;28;109255;-69
2023/09/16 01:12:14;;;;;;;;;;;;;;;24.82;49.49;95411.53;6189076;28;109097;-68
2023/09/16 01:15:20;;;;;;;;;;;;;;;24.79;49.62;95406.81;6192711;28;109313;-68
2023/09/16 01:18:25;;;;;;;;;;;;;;;24.77;49.72;95399.09;6202367;28;109014;-68
2023/09/16 01:21:28;;;;;;;;;;;;;;;24.78;49.56;95395.31;6209949;28;109129;-68
2023/09/16 01:24:31;;;;;;;;;;;;;;;24.79;49.83;95388.09;6212398;28;110045;-68
2023/09/16 01:27:37;;;;;;;;;;;;;;;24.76;50.03;95381.47;6212954;28;109660;-68
2023/09/16 01:30:44;;;;;;;;;;;;;;;24.77;49.80;95379.56;6190553;28;109085;-68
2023/09/16 01:33:51;;;;;;;;;;;;;;;24.80;49.62;95376.28;6188269;28;110182;-66
2023/09/16 01:36:57;;;;;;;;;;;;;;;24.85;49.54;95386.03;6209748;28;109093;-69
2023/09/16 01:40:00;;;;;;;;;;;;;;;24.89;49.68;95382.44;6209423;28;110028;-65
2023/09/16 01:43:05;;;;;;;;;;;;;;;24.88;49.79;95386.22;6206203;28;109071;-67
2023/09/16 01:46:10;;;;;;;;;;;;;;;24.89;49.60;95390.47;6209096;28;109164;-67
2023/09/16 01:49:13;;;;;;;;;;;;;;;24.91;49.60;95390.94;6191679;28;110110;-64
2023/09/16 01:52:16;;;;;;;;;;;;;;;24.88;49.72;95394.25;6178995;28;110556;-68
2023/09/16 01:55:19;;;;;;;;;;;;;;;24.90;49.68;95394.72;6202247;28;109137;-67
2023/09/16 01:58:23;;;;;;;;;;;;;;;24.90;49.66;95399.28;6212922;28;108924;-65
2023/09/16 02:01:26;;;;;;;;;;;;;;;24.91;49.53;95407.00;6196004;28;110252;-68
2023/09/16 02:04:29;;;;;;;;;;;;;;;24.92;49.75;95403.22;6183249;28;109328;-67
2023/09/16 02:07:32;;;;;;;;;;;;;;;24.94;49.50;95401.00;6212109;28;109269;-68
2023/09/16 02:10:35;;;;;;;;;;;;;;;24.96;49.65;95416.75;6211088;28;109205;-66
2023/09/16 02:13:39;;;;;;;;;;;;;;;24.97;49.53;95419.09;6188177;28;110147;-66
2023/09/16 02:16:42;;;;;;;;;;;;;;;24.94;49.89;95417.06;6208799;28;108905;-67
2023/09/16 02:19:45;;;;;;;;;;;;;;;24.93;49.69;95423.53;6228275;28;109278;-68
2023/09/16 02:22:48;;;;;;;;;;;;;;;24.92;50.12;95421.16;6187089;28;109105;-66
2023/09/16 02:25:50;;;;;;;;;;;;;;;24.92;50.12;95413.91;6196570;28;109445;-68
2023/09/16 02:28:54;;;;;;;;;;;;;;;24.94;50.13;95411.72;6182184;28;109065;-66
2023/09/16 02:31:57;;;;;;;;;;;;;;;24.95;49.95;95407.94;6202922;28;109408;-67
2023/09/16 02:35:00;;;;;;;;;;;;;;;24.94;50.10;95409.03;6209660;28;109145;-67
2023/09/16 02:38:03;;;;;;;;;;;;;;;24.96;50.17;95420.22;6201267;28;109095;-67
2023/09/16 02:41:06;;;;;;;;;;;;;;;24.91;50.45;95423.06;6201969;28;109111;-69
2023/09/16 02:44:10;;;;;;;;;;;;;;;24.91;50.26;95428.41;6202307;28;110112;-68
2023/09/16 02:47:13;;;;;;;;;;;;;;;25.04;49.55;95427.47;6202900;28;109352;-66
2023/09/16 02:50:16;;;;;;;;;;;;;;;25.11;49.11;95428.88;6209485;28;109110;-68
2023/09/16 02:53:19;;;;;;;;;;;;;;;25.08;49.65;95432.97;6205228;28;109003;-68
2023/09/16 02:56:22;;;;;;;;;;;;;;;25.09;49.62;95432.66;6200742;28;109603;-67
2023/09/16 02:59:26;;;;;;;;;;;;;;;25.02;50.47;95437.69;6193780;28;109098;-62
2023/09/16 03:02:29;;;;;;;;;;;;;;;25.03;49.79;95433.13;6181973;28;109286;-67
2023/09/16 03:05:31;;;;;;;;;;;;;;;25.00;50.40;95437.22;6196575;28;109055;-68
2023/09/16 03:08:34;;;;;;;;;;;;;;;25.00;50.38;95442.56;6209799;28;109365;-68
2023/09/16 03:11:37;;;;;;;;;;;;;;;25.04;49.73;95438.19;6200859;28;111284;-67
2023/09/16 03:14:42;;;;;;;;;;;;;;;25.08;49.43;95444.47;6208651;28;109054;-68
2023/09/16 03:17:44;;;;;;;;;;;;;;;25.06;49.99;95448.59;6209053;28;109275;-67
2023/09/16 03:21:07;;;;;;;;;;;;;;;25.06;50.32;95457.41;6202065;28;108799;-67
2023/09/16 03:24:10;;;;;;;;;;;;;;;25.09;50.29;95455.97;6177332;28;109865;-67
2023/09/16 03:27:13;;;;;;;;;;;;;;;25.06;50.74;95452.03;6195677;28;109188;-64
2023/09/16 03:30:17;;;;;;;;;;;;;;;25.09;51.00;95447.94;6207583;28;109071;-64
2023/09/16 03:33:20;;;;;;;;;;;;;;;25.00;51.34;95455.97;6198139;28;110040;-65
2023/09/16 03:36:23;;;;;;;;;;;;;;;24.71;51.68;95453.09;6182637;28;109962;-68
2023/09/16 03:39:26;;;;;;;;;;;;;;;24.47;52.45;95456.94;6207732;28;109251;-68
2023/09/16 03:42:29;;;;;;;;;;;;;;;24.43;52.31;95461.34;6203040;28;109111;-69
2023/09/16 03:45:33;;;;;;;;;;;;;;;24.35;52.68;95462.09;6204108;28;110337;-68
2023/09/16 03:48:36;;;;;;;;;;;;;;;24.52;52.58;95458.69;6207388;28;110015;-69
2023/09/16 03:51:39;;;;;;;;;;;;;;;24.68;52.91;95459.06;6198787;28;110058;-67
2023/09/16 03:54:43;;;;;;;;;;;;;;;24.47;53.42;95473.00;6203658;28;109146;-70
2023/09/16 03:57:46;;;;;;;;;;;;;;;24.40;53.49;95477.22;6183137;28;109027;-69
2023/09/16 04:00:50;;;;;;;;;;;;;;;24.54;53.71;95485.94;6196440;28;108960;-69
2023/09/16 04:03:54;;;;;;;;;;;;;;;24.59;53.08;95480.44;6209507;28;109559;-76
2023/09/16 04:06:57;;;;;;;;;;;;;;;24.82;52.34;95491.06;6210308;28;110187;-68
2023/09/16 04:10:00;;;;;;;;;;;;;;;24.92;51.70;95496.91;6201229;28;110041;-66
2023/09/16 04:13:04;;;;;;;;;;;;;;;24.98;51.39;95509.03;6211110;28;110012;-67
2023/09/16 04:16:08;;;;;;;;;;;;;;;25.03;51.05;95508.09;6209567;28;110076;-68
2023/09/16 04:19:12;;;;;;;;;;;;;;;25.06;50.68;95516.31;6206254;28;109043;-65
2023/09/16 04:22:15;;;;;;;;;;;;;;;25.08;50.77;95524.81;6188745;28;109007;-67
2023/09/16 04:25:18;;;;;;;;;;;;;;;25.09;50.47;95521.03;6189587;28;109104;-68
2023/09/16 04:28:21;;;;;;;;;;;;;;;25.11;50.26;95522.63;6215090;28;110064;-66
2023/09/16 04:31:25;;;;;;;;;;;;;;;25.12;50.37;95518.84;6204859;28;109475;-66
2023/09/16 04:34:28;;;;;;;;;;;;;;;25.13;50.30;95510.47;6214593;28;108991;-69
2023/09/16 04:37:31;;;;;;;;;;;;;;;25.12;50.32;95506.22;6213647;28;109580;-67
2023/09/16 04:40:34;;;;;;;;;;;;;;;25.14;50.01;95505.91;6214086;28;109231;-67
2023/09/16 04:43:37;;;;;;;;;;;;;;;25.19;50.03;95508.44;6179485;28;109116;-67
2023/09/16 04:46:41;;;;;;;;;;;;;;;25.16;50.84;95503.72;6190838;28;109409;-67
2023/09/16 04:49:44;;;;;;;;;;;;;;;25.17;49.90;95507.97;6189746;28;109404;-66
2023/09/16 04:52:47;;;;;;;;;;;;;;;25.17;49.90;95516.00;6207851;28;109306;-67
2023/09/16 04:55:50;;;;;;;;;;;;;;;25.19;50.21;95519.16;6204417;28;109251;-66
2023/09/16 04:58:53;;;;;;;;;;;;;;;25.18;49.79;95517.56;6214651;28;109090;-68
2023/09/16 05:01:57;;;;;;;;;;;;;;;25.19;49.59;95516.47;6203522;28;109188;-68
2023/09/16 05:05:00;;;;;;;;;;;;;;;25.19;49.98;95524.50;6184274;28;108895;-66
2023/09/16 05:08:03;;;;;;;;;;;;;;;25.19;49.86;95519.16;6204753;28;109085;-68
2023/09/16 05:11:06;;;;;;;;;;;;;;;25.19;49.69;95529.84;6213698;28;109043;-68
2023/09/16 05:14:09;;;;;;;;;;;;;;;25.20;49.43;95529.53;6214318;28;108937;-67
2023/09/16 05:17:13;;;;;;;;;;;;;;;25.20;49.25;95531.44;6194326;28;109315;-67
2023/09/16 05:20:16;;;;;;;;;;;;;;;25.19;49.48;95513.78;6189648;28;109165;-68
2023/09/16 05:23:18;;;;;;;;;;;;;;;25.19;49.19;95519.94;6210029;28;109244;-69
2023/09/16 05:26:21;;;;;;;;;;;;;;;25.20;49.52;95518.81;6213752;28;109146;-69
2023/09/16 05:29:24;;;;;;;;;;;;;;;25.20;49.25;95537.56;6203598;27;109425;-67
2023/09/16 05:32:29;;;;;;;;;;;;;;;25.21;49.65;95554.47;6193743;28;109277;-71
2023/09/16 05:35:32;;;;;;;;;;;;;;;25.21;49.26;95551.78;6188559;28;108999;-67
2023/09/16 05:38:35;;;;;;;;;;;;;;;25.21;49.10;95549.09;6183930;28;109449;-67
2023/09/16 05:41:38;;;;;;;;;;;;;;;25.22;49.19;95542.66;6188683;28;109134;-68
2023/09/16 05:44:41;;;;;;;;;;;;;;;25.22;49.15;95542.66;6213488;28;109186;-68
2023/09/16 05:47:48;;;;;;;;;;;;;;;25.21;49.01;95543.75;6201583;28;109071;-67
2023/09/16 05:50:56;;;;;;;;;;;;;;;25.21;49.19;95557.94;6178595;28;110196;-66
2023/09/16 05:53:59;;;;;;;;;;;;;;;25.21;48.98;95544.53;6213340;28;109071;-67
2023/09/16 05:57:01;;;;;;;;;;;;;;;25.21;48.88;95538.41;6213305;28;109057;-67
2023/09/16 06:00:05;;;;;;;;;;;;;;;25.21;49.06;95539.19;6213396;28;109249;-68
2023/09/16 06:03:10;;;;;;;;;;;;;;;25.21;49.02;95549.09;6204177;28;111892;-68
2023/09/16 06:06:12;;;;;;;;;;;;;;;25.20;48.65;95542.94;6212641;28;109101;-68
2023/09/16 06:09:15;;;;;;;;;;;;;;;25.21;48.73;95535.72;6212915;28;110077;-67
2023/09/16 06:12:18;;;;;;;;;;;;;;;25.21;48.75;95554.47;6213013;28;109009;-68
2023/09/16 06:15:21;;;;;;;;;;;;;;;25.22;49.14;95561.41;6201920;28;109243;-66
2023/09/16 06:18:25;;;;;;;;;;;;;;;25.22;48.82;95561.41;6217204;28;109244;-67
2023/09/16 06:21:29;;;;;;;;;;;;;;;25.20;48.83;95561.69;6210090;28;109079;-69
2023/09/16 06:24:32;;;;;;;;;;;;;;;25.21;48.52;95559.81;6182556;28;109189;-66
2023/09/16 06:27:35;;;;;;;;;;;;;;;25.21;48.68;95554.47;6184012;28;109097;-68
2023/09/16 06:30:38;;;;;;;;;;;;;;;25.21;48.45;95552.56;6188698;28;110009;-68
2023/09/16 06:33:42;;;;;;;;;;;;;;;25.21;48.72;95552.56;6208426;28;109500;-69
2023/09/16 06:36:45;;;;;;;;;;;;;;;25.21;48.39;95557.94;6202137;28;109206;-68
2023/09/16 06:39:48;;;;;;;;;;;;;;;25.20;48.50;95553.66;6211685;28;109006;-67
2023/09/16 06:42:51;;;;;;;;;;;;;;;25.20;48.51;95558.22;6199414;28;109083;-66
2023/09/16 06:45:54;;;;;;;;;;;;;;;25.20;48.57;95560.91;6188407;28;109076;-67
2023/09/16 06:48:58;;;;;;;;;;;;;;;25.21;48.55;95557.16;6180096;28;109599;-69
2023/09/16 06:52:01;;;;;;;;;;;;;;;25.21;48.25;95549.91;6187859;28;110274;-67
2023/09/16 06:55:05;;;;;;;;;;;;;;;25.22;48.57;95546.13;6187614;28;109247;-69
2023/09/16 06:58:08;;;;;;;;;;;;;;;25.22;48.34;95550.69;6184999;28;109734;-66
2023/09/16 07:01:11;;;;;;;;;;;;;;;25.22;48.21;95561.41;6180555;28;109259;-68
2023/09/16 07:04:15;;;;;;;;;;;;;;;25.21;48.54;95565.97;6209883;28;109119;-68
2023/09/16 07:07:20;;;;;;;;;;;;;;;25.22;48.34;95570.22;6212153;28;110141;-68
2023/09/16 07:10:23;;;;;;;;;;;;;;;25.23;48.32;95573.69;6200830;28;109033;-67
2023/09/16 07:13:26;;;;;;;;;;;;;;;25.23;48.52;95581.72;6211037;28;108894;-70
2023/09/16 07:16:35;;;;;;;;;;;;;;;25.23;48.38;95584.41;6211569;28;109094;-69
2023/09/16 07:19:40;;;;;;;;;;;;;;;25.23;48.35;95582.50;6187649;28;109365;-68
2023/09/16 07:22:43;;;;;;;;;;;;;;;25.23;48.49;95595.91;6176263;28;109241;-69
2023/09/16 07:25:52;;;;;;;;;;;;;;;25.24;48.11;95597.50;6186918;28;109104;-68
2023/09/16 07:28:55;;;;;;;;;;;;;;;25.25;48.31;95587.56;6205727;28;109429;-68
2023/09/16 07:31:58;;;;;;;;;;;;;;;25.24;47.94;95585.97;6212253;28;109209;-69
2023/09/16 07:35:02;;;;;;;;;;;;;;;25.25;48.27;95587.56;6176968;28;109698;-67
2023/09/16 07:38:05;;;;;;;;;;;;;;;25.25;48.17;95584.88;6187002;28;110331;-67
2023/09/16 07:41:08;;;;;;;;;;;;;;;25.26;48.00;95573.06;6186120;28;110079;-67
2023/09/16 07:44:11;;;;;;;;;;;;;;;25.26;48.07;95573.06;6201625;28;109254;-67
2023/09/16 07:47:13;;;;;;;;;;;;;;;25.27;48.26;95574.63;6210992;27;109891;-67
2023/09/16 07:50:18;;;;;;;;;;;;;;;25.28;47.85;95570.84;6186492;28;109192;-69
2023/09/16 07:53:21;;;;;;;;;;;;;;;25.28;48.17;95563.59;6199260;28;109223;-68
2023/09/16 07:56:24;;;;;;;;;;;;;;;25.29;47.83;95575.09;6201134;28;109399;-68
2023/09/16 07:59:27;;;;;;;;;;;;;;;25.30;47.71;95595.44;6210527;28;109238;-66
2023/09/16 08:02:30;;;;;;;;;;;;;;;25.29;47.91;95589.28;6211730;28;111449;-68
2023/09/16 08:05:34;;;;;;;;;;;;;;;25.29;47.97;95594.66;6210600;28;109021;-67
2023/09/16 08:08:37;;;;;;;;;;;;;;;25.30;47.97;95588.19;6186847;28;109228;-67
2023/09/16 08:11:40;;;;;;;;;;;;;;;25.30;48.02;95593.53;6185559;28;109246;-69
2023/09/16 08:14:42;;;;;;;;;;;;;;;25.31;47.95;95586.31;6185784;28;110178;-68
2023/09/16 08:17:45;;;;;;;;;;;;;;;25.30;47.93;95582.84;6201957;28;110102;-64
2023/09/16 08:20:50;;;;;;;;;;;;;;;25.31;48.07;95578.25;6180541;28;108939;-67
2023/09/16 08:23:52;;;;;;;;;;;;;;;25.33;47.71;95576.06;6201699;28;109079;-78
2023/09/16 08:26:55;;;;;;;;;;;;;;;25.33;47.67;95584.09;6210468;28;109056;-67
2023/09/16 08:29:58;;;;;;;;;;;;;;;25.33;48.02;95586.78;6177499;28;109254;-68
2023/09/16 08:33:01;;;;;;;;;;;;;;;25.34;47.64;95588.34;6193793;28;109183;-67
2023/09/16 08:36:05;;;;;;;;;;;;;;;25.34;47.78;95585.66;6210298;28;109012;-69
2023/09/16 08:39:08;;;;;;;;;;;;;;;25.34;47.39;95588.34;6210707;28;109208;-69
2023/09/16 08:42:14;;;;;;;;;;;;;;;25.35;47.50;95587.28;6199773;28;109348;-68
2023/09/16 08:45:20;;;;;;;;;;;;;;;25.35;47.37;95598.00;6210195;28;109092;-68
2023/09/16 08:48:26;;;;;;;;;;;;;;;25.35;47.37;95611.38;6200069;28;109209;-67
2023/09/16 08:51:33;;;;;;;;;;;;;;;25.35;47.49;95614.06;6186342;28;110019;-68
2023/09/16 08:54:36;;;;;;;;;;;;;;;25.35;47.72;95622.09;6195713;28;111681;-68
2023/09/16 08:57:40;;;;;;;;;;;;;;;25.35;47.43;95625.56;6206389;28;109100;-68
2023/09/16 09:00:43;;;;;;;;;;;;;;;25.35;47.55;95630.94;6185680;28;109006;-69
2023/09/16 09:03:46;;;;;;;;;;;;;;;25.38;47.30;95629.53;6192655;28;109276;-63
2023/09/16 09:06:51;;;;;;;;;;;;;;;25.41;47.46;95633.47;6206612;28;109314;-68
2023/09/16 09:09:54;;;;;;;;;;;;;;;25.42;47.21;95625.13;6190302;28;109157;-68
2023/09/16 09:13:00;;;;;;;;;;;;;;;25.47;47.34;95622.28;6188787;28;109049;-66
2023/09/16 09:16:03;;;;;;;;;;;;;;;25.52;47.15;95614.09;6180394;28;109035;-67
2023/09/16 09:19:07;;;;;;;;;;;;;;;25.58;47.22;95610.19;6224582;28;110001;-68
2023/09/16 09:22:12;;;;;;;;;;;;;;;25.66;47.22;95611.28;6213862;28;108976;-67
2023/09/16 09:25:15;;;;;;;;;;;;;;;25.72;46.96;95612.72;6213294;28;108995;-70
2023/09/16 09:28:18;;;;;;;;;;;;;;;25.79;46.87;95601.50;6202872;27;109431;-67
2023/09/16 09:31:21;;;;;;;;;;;;;;;25.88;46.76;95605.00;6213384;28;109039;-67
2023/09/16 09:34:28;;;;;;;;;;;;;;;25.89;46.31;95601.19;6198084;28;110016;-66
2023/09/16 09:37:32;;;;;;;;;;;;;;;25.90;46.61;95600.88;6184141;28;109117;-66
2023/09/16 09:40:35;;;;;;;;;;;;;;;25.88;46.57;95603.09;6208716;28;109219;-67
2023/09/16 09:43:38;;;;;;;;;;;;;;;25.87;46.34;95596.13;6203338;28;109591;-67
2023/09/16 09:46:41;;;;;;;;;;;;;;;25.88;46.75;95602.31;6202480;28;109196;-66
2023/09/16 09:49:44;;;;;;;;;;;;;;;25.89;46.26;95587.78;6186124;28;110231;-67
2023/09/16 09:52:53;;;;;;;;;;;;;;;25.90;46.18;95589.38;6189519;28;109992;-67
2023/09/16 09:55:56;;;;;;;;;;;;;;;25.88;46.71;95583.53;6188830;28;109067;-66
2023/09/16 09:58:59;;;;;;;;;;;;;;;25.87;46.45;95587.28;6199845;28;109057;-66
2023/09/16 10:02:03;;;;;;;;;;;;;;;25.87;46.60;95587.28;6202941;28;109456;-67
2023/09/16 10:05:08;;;;;;;;;;;;;;;25.87;46.30;95585.41;6193187;28;109005;-66
2023/09/16 10:08:13;;;;;;;;;;;;;;;25.89;46.53;95585.09;6192551;28;109250;-67
2023/09/16 10:11:17;;;;;;;;;;;;;;;25.93;46.59;95583.38;6212744;28;109109;-65
2023/09/16 10:14:20;;;;;;;;;;;;;;;25.93;46.34;95580.69;6204116;28;108895;-67
2023/09/16 10:17:24;;;;;;;;;;;;;;;25.93;46.30;95581.47;6224278;28;109009;-67
2023/09/16 10:20:29;;;;;;;;;;;;;;;25.93;46.65;95580.69;6193322;28;109027;-67
2023/09/16 10:23:34;;;;;;;;;;;;;;;25.97;46.50;95570.88;6179132;28;109080;-66
2023/09/16 10:26:36;;;;;;;;;;;;;;;25.98;46.04;95564.41;6188247;28;109072;-67
2023/09/16 10:29:40;;;;;;;;;;;;;;;26.02;46.22;95567.28;6203417;28;110198;-67
2023/09/16 10:32:44;;;;;;;;;;;;;;;26.02;46.24;95564.59;6212463;28;109129;-68
2023/09/16 10:35:47;;;;;;;;;;;;;;;26.03;46.12;95569.63;6201683;28;109012;-69
2023/09/16 10:38:51;;;;;;;;;;;;;;;26.02;46.36;95568.06;6204786;28;109084;-67
2023/09/16 10:41:55;;;;;;;;;;;;;;;26.03;46.16;95556.22;6187812;28;109212;-68
2023/09/16 10:44:58;;;;;;;;;;;;;;;26.05;45.90;95554.03;6186786;28;109177;-67
2023/09/16 10:48:01;;;;;;;;;;;;;;;26.06;46.04;95552.94;6192727;28;109125;-66
2023/09/16 10:51:06;;;;;;;;;;;;;;;26.06;46.10;95550.25;6187791;28;109574;-68
2023/09/16 10:54:14;;;;;;;;;;;;;;;26.07;45.94;95543.78;6187680;28;109221;-68
2023/09/16 10:57:18;;;;;;;;;;;;;;;26.06;45.81;95536.06;6183282;28;109963;-67
2023/09/16 11:00:22;;;;;;;;;;;;;;;26.03;45.85;95532.09;6201435;28;109818;-68
2023/09/16 11:03:28;;;;;;;;;;;;;;;26.03;46.21;95537.44;6212447;28;109072;-67
2023/09/16 11:06:31;;;;;;;;;;;;;;;26.03;46.34;95536.66;6213079;28;109157;-67
2023/09/16 11:09:36;;;;;;;;;;;;;;;26.01;46.34;95528.94;6201605;28;109223;-69
2023/09/16 11:12:39;;;;;;;;;;;;;;;26.01;46.15;95526.25;6212659;28;109218;-70
2023/09/16 11:15:42;;;;;;;;;;;;;;;26.01;46.23;95523.56;6209737;28;109099;-66
2023/09/16 11:18:48;;;;;;;;;;;;;;;26.02;45.94;95510.94;6207003;28;109228;-66
2023/09/16 11:21:54;;;;;;;;;;;;;;;26.02;45.96;95511.75;6176525;28;112671;-67
2023/09/16 11:25:01;;;;;;;;;;;;;;;26.03;46.07;95504.47;6201518;28;108976;-67
2023/09/16 11:28:04;;;;;;;;;;;;;;;26.00;46.40;95500.53;6212028;28;109177;-67
2023/09/16 11:31:09;;;;;;;;;;;;;;;25.96;46.28;95505.75;6182832;28;109069;-68
2023/09/16 11:34:12;;;;;;;;;;;;;;;25.96;46.23;95507.63;6180949;28;110024;-67
2023/09/16 11:37:16;;;;;;;;;;;;;;;25.96;46.15;95496.91;6186792;28;109224;-67
2023/09/16 11:40:26;;;;;;;;;;;;;;;25.96;46.19;95489.66;6186690;28;110113;-68
2023/09/16 11:43:29;;;;;;;;;;;;;;;25.94;46.23;95496.44;6176183;28;110034;-67
2023/09/16 11:46:32;;;;;;;;;;;;;;;25.95;46.17;95495.34;6190905;28;110059;-66
2023/09/16 11:49:35;;;;;;;;;;;;;;;25.95;46.17;95492.66;6226286;28;109019;-67
2023/09/16 11:52:38;;;;;;;;;;;;;;;25.95;46.39;95481.91;6212393;28;112336;-66
2023/09/16 11:55:43;;;;;;;;;;;;;;;25.93;46.09;95489.50;6181852;28;110554;-67
2023/09/16 11:58:46;;;;;;;;;;;;;;;25.94;46.46;95483.03;6187126;28;110653;-66
2023/09/16 12:01:49;;;;;;;;;;;;;;;25.91;46.11;95481.00;6186659;28;109000;-67
2023/09/16 12:04:53;;;;;;;;;;;;;;;25.91;46.26;95473.72;6198411;28;109327;-67
2023/09/16 12:07:56;;;;;;;;;;;;;;;25.88;46.29;95481.63;6202015;28;109558;-67
2023/09/16 12:11:01;;;;;;;;;;;;;;;25.88;46.24;95471.69;6211404;28;109123;-67
2023/09/16 12:14:04;;;;;;;;;;;;;;;25.88;46.50;95466.34;6210173;28;108867;-66
2023/09/16 12:17:07;;;;;;;;;;;;;;;25.89;46.56;95462.53;6206939;28;109134;-62
2023/09/16 12:20:10;;;;;;;;;;;;;;;25.88;46.37;95460.97;6208907;28;110175;-66
2023/09/16 12:23:13;;;;;;;;;;;;;;;25.89;46.52;95467.13;6186200;28;109184;-66
2023/09/16 12:26:18;;;;;;;;;;;;;;;25.86;46.48;95465.06;6186145;28;109376;-67
2023/09/16 12:29:21;;;;;;;;;;;;;;;25.87;46.25;95463.94;6174820;28;109205;-66
2023/09/16 12:32:24;;;;;;;;;;;;;;;25.86;46.29;95457.00;6185824;28;109102;-67
2023/09/16 12:35:27;;;;;;;;;;;;;;;25.87;46.50;95453.22;6200354;28;109028;-66
2023/09/16 12:38:30;;;;;;;;;;;;;;;25.86;46.07;95446.28;6211094;28;109876;-65
2023/09/16 12:41:36;;;;;;;;;;;;;;;25.83;46.52;95441.56;6199053;28;110054;-65
2023/09/16 12:44:40;;;;;;;;;;;;;;;25.87;46.08;95443.28;6212077;28;110166;-67
2023/09/16 12:47:44;;;;;;;;;;;;;;;25.87;46.28;95442.50;6214728;28;109152;-67
2023/09/16 12:50:47;;;;;;;;;;;;;;;25.87;45.97;95432.56;6192784;28;109155;-65
2023/09/16 12:53:52;;;;;;;;;;;;;;;25.88;46.55;95428.78;6184411;28;109221;-66
2023/09/16 12:56:56;;;;;;;;;;;;;;;25.86;46.25;95436.34;6214540;28;109238;-67
2023/09/16 13:00:03;;;;;;;;;;;;;;;25.88;46.11;95428.00;6215381;28;111772;-66
2023/09/16 13:03:07;;;;;;;;;;;;;;;25.86;46.03;95430.97;6203509;28;109086;-67
2023/09/16 13:06:10;;;;;;;;;;;;;;;25.87;46.35;95429.88;6215461;28;109777;-67
2023/09/16 13:09:13;;;;;;;;;;;;;;;25.87;46.44;95421.03;6212475;28;109215;-66
2023/09/16 13:12:17;;;;;;;;;;;;;;;25.87;46.07;95426.41;6190657;28;109024;-66
2023/09/16 13:15:21;;;;;;;;;;;;;;;25.88;46.17;95428.00;6189432;28;109208;-67
2023/09/16 13:18:25;;;;;;;;;;;;;;;25.89;46.14;95430.38;6212913;28;109788;-67
2023/09/16 13:21:29;;;;;;;;;;;;;;;25.89;46.24;95424.22;6193880;28;109136;-69
2023/09/16 13:24:41;;;;;;;;;;;;;;;25.87;46.27;95427.19;6191914;28;109229;-63
2023/09/16 13:27:45;;;;;;;;;;;;;;;25.89;46.07;95424.22;6207547;28;109060;-73
2023/09/16 13:30:49;;;;;;;;;;;;;;;25.87;46.36;95426.41;6214717;28;110391;-67
2023/09/16 13:33:57;;;;;;;;;;;;;;;25.87;45.96;95429.88;6214479;28;109874;-67
2023/09/16 13:37:00;;;;;;;;;;;;;;;25.86;46.31;95419.47;6203933;28;109668;-70
2023/09/16 13:40:09;;;;;;;;;;;;;;;25.87;46.02;95421.03;6205717;28;109840;-67
2023/09/16 13:43:13;;;;;;;;;;;;;;;25.83;46.34;95417.44;6188962;28;109404;-70
2023/09/16 13:46:17;;;;;;;;;;;;;;;25.86;46.34;95419.47;6206210;28;109154;-65
2023/09/16 13:49:20;;;;;;;;;;;;;;;25.84;46.04;95417.13;6201229;28;109880;-68
2023/09/16 13:52:23;;;;;;;;;;;;;;;25.85;46.35;95412.53;6188344;28;109306;-67
2023/09/16 13:55:26;;;;;;;;;;;;;;;25.82;46.20;95410.50;6197905;28;111647;-69
2023/09/16 13:58:33;;;;;;;;;;;;;;;25.81;46.32;95412.41;6212837;28;109174;-66
2023/09/16 14:01:36;;;;;;;;;;;;;;;25.80;46.27;95410.03;6203355;28;109235;-67
2023/09/16 14:04:39;;;;;;;;;;;;;;;25.80;46.33;95397.41;6212599;28;109023;-67
2023/09/16 14:07:42;;;;;;;;;;;;;;;25.79;46.32;95397.75;6212817;28;109001;-67
2023/09/16 14:10:45;;;;;;;;;;;;;;;25.75;46.36;95399.50;6192802;28;109223;-62
2023/09/16 14:13:49;;;;;;;;;;;;;;;25.78;46.41;95394.28;6187109;28;110075;-68
2023/09/16 14:16:52;;;;;;;;;;;;;;;25.78;46.26;95401.53;6210014;28;109202;-67
2023/09/16 14:19:55;;;;;;;;;;;;;;;25.75;46.31;95396.81;6232033;28;109067;-78
2023/09/16 14:22:58;;;;;;;;;;;;;;;25.75;46.13;95397.59;6201384;28;108838;-67
2023/09/16 14:26:01;;;;;;;;;;;;;;;25.75;46.20;95394.91;6212877;28;109868;-67
2023/09/16 14:29:06;;;;;;;;;;;;;;;25.74;46.36;95395.25;6212158;28;108849;-68
2023/09/16 14:32:09;;;;;;;;;;;;;;;25.74;46.39;95393.34;6212492;28;110433;-67
2023/09/16 14:35:13;;;;;;;;;;;;;;;25.74;45.94;95397.94;6201688;28;108965;-67
2023/09/16 14:38:16;;;;;;;;;;;;;;;25.73;46.33;95399.03;6212294;28;109244;-68
2023/09/16 14:41:19;;;;;;;;;;;;;;;25.72;46.32;95392.09;6197255;28;109099;-68
2023/09/16 14:44:23;;;;;;;;;;;;;;;25.72;46.33;95389.41;6182874;28;109190;-66
2023/09/16 14:47:26;;;;;;;;;;;;;;;25.70;46.38;95400.44;6188013;28;109556;-68
2023/09/16 14:50:29;;;;;;;;;;;;;;;25.69;46.37;95402.31;6203791;28;109819;-67
2023/09/16 14:53:32;;;;;;;;;;;;;;;25.69;46.54;95399.66;6187037;28;109198;-67
2023/09/16 14:56:35;;;;;;;;;;;;;;;25.69;46.34;95399.66;6177274;28;110079;-69
2023/09/16 14:59:39;;;;;;;;;;;;;;;25.68;46.26;95408.81;6186848;28;109145;-68
2023/09/16 15:02:43;;;;;;;;;;;;;;;25.67;46.08;95399.19;6187285;28;110057;-67
2023/09/16 15:05:46;;;;;;;;;;;;;;;25.68;46.19;95422.19;6196081;28;110037;-68
2023/09/16 15:08:49;;;;;;;;;;;;;;;25.68;46.36;95408.00;6200719;28;109093;-66
2023/09/16 15:11:52;;;;;;;;;;;;;;;25.68;46.42;95408.00;6193732;28;109037;-68
2023/09/16 15:14:56;;;;;;;;;;;;;;;25.67;46.41;95409.91;6186383;28;109094;-66
2023/09/16 15:17:59;;;;;;;;;;;;;;;25.68;46.47;95411.47;6207548;28;109692;-67
2023/09/16 15:21:03;;;;;;;;;;;;;;;25.67;46.08;95407.22;6205188;28;111473;-66
2023/09/16 15:24:06;;;;;;;;;;;;;;;25.67;46.37;95399.19;6187044;28;110359;-65
2023/09/16 15:27:09;;;;;;;;;;;;;;;25.67;46.04;95409.91;6205637;28;109522;-66
2023/09/16 15:30:13;;;;;;;;;;;;;;;25.67;46.35;95401.06;6204994;28;109173;-63
2023/09/16 15:33:16;;;;;;;;;;;;;;;25.66;46.35;95397.63;6208217;28;109216;-66
2023/09/16 15:36:19;;;;;;;;;;;;;;;25.66;46.29;95402.97;6211329;28;110303;-67
2023/09/16 15:39:22;;;;;;;;;;;;;;;25.66;46.59;95405.66;6211419;28;110122;-67
2023/09/16 15:42:25;;;;;;;;;;;;;;;25.67;46.20;95404.53;6200366;28;110207;-67